Napa, CA

9:11 PM PDT on July 06, 2015 (GMT -0700)
Old Soda Springs Rd 850 ft | | Change Station
CLOSE
Current Station
Personal Weather Station
Location: Napa, CA
Elevation: 846 ft
Nearby Weather Stations

Elev 846 ft 38.38 °N, 122.27 °W | Updated 41 seconds ago

Clear
Clear
64.4 °F
Feels Like 64.4 °F
N
0.0
Wind Variable Wind from East
Gusts 0.0 mph

Today
High -- | Low -- °F
--% Chance of Precip.
Yesterday
High -- | Low -- °F
Precip. -- in
5:51 AM 8:36 PM
Waning Gibbous, 69% visible
Pressure 29.97 in
Visibility 10.0 miles
Clouds Clear
Dew Point 55 °F
Humidity 72%
Rainfall 0.00 in
Snow Depth Not available.
UV 0 out of 12
Pollen 5.30 out of 12
Air Quality Not available.
Flu Activity Not available.
METAR KAPC 070354Z 26013KT 10SM CLR 18/13 A2999 RMK AO2 SLP147 T01780133

More Conditions Fewer Conditions

Pressure 29.97 in
Visibility 10.0 miles
Clouds Clear
Dew Point 55 °F
Humidity 72%
Rainfall 0.00 in
Snow Depth Not available.
UV 0 out of 12
Pollen 5.30 out of 12
Air Quality Not available.
Flu Activity Not available.
METAR KAPC 070354Z 26013KT 10SM CLR 18/13 A2999 RMK AO2 SLP147 T01780133

More Conditions Fewer Conditions

10-Day Weather Forecast

×

Almanac

Astronomy

Jul. 06, 2015 Rise Set
Actual Time
Civil Twilight
Nautical Twilight
Astronomical Twilight
Moon
Length of Visible Light
Length of Day
Tomorrow will be .
, % of the Moon is Illuminated

Today's Extremes

State Highs State Lows

Community

WunderPhotos

Upload Photos

1,835,716 photos uploaded!

WunderBlogs® & News

Nearby

Air Quality

  Air Quality AQ Index Pollutant
Not available.

Snow Depth

Station Depth Elevation

Earthquake Activity

City Distance Mag. Time & Date
Minimum magnitude displayed is 2.5.

Coastal Water Temperatures

Place Temperature

Stations

Nearby Weather Stations

Station Location Temp. Windchill Dew Point Humidity Wind Precip. Elev Updated Type